Time;durP1;ratioP1;P1;durP2;ratioP2;P2;SDS_P1;SDS_P2;PMS_P1;PMS_P2;Temp;Humidity;BMP_temperature;BMP_pressure;BME280_temperature;BME280_humidity;BME280_pressure;Samples;Min_cycle;Max_cycle;Signal;HPM_P1;HPM_P2
2022/10/30 00:01:26;;;;;;;;;7.00;7.00;;;;;;;;5085613;28;8828;-80
2022/10/30 00:03:54;;;;;;;;;13.25;10.25;;;;;;;;5065562;28;8849;-80
2022/10/30 00:06:22;;;;;;;;;10.50;9.25;;;;;;;;5067386;28;8890;-81
2022/10/30 00:08:49;;;;;;;;;13.00;12.00;;;;;;;;5068809;28;8872;-80
2022/10/30 00:11:17;;;;;;;;;10.00;10.00;;;;;;;;5051169;28;8854;-81
2022/10/30 00:13:44;;;;;;;;;9.50;7.75;;;;;;;;5067657;28;8842;-82
2022/10/30 00:16:12;;;;;;;;;11.25;11.00;;;;;;;;5085601;28;8845;-82
2022/10/30 00:18:42;;;;;;;;;9.50;9.50;;;;;;;;5086296;28;8904;-82
2022/10/30 00:21:10;;;;;;;;;11.50;10.75;;;;;;;;5067614;28;8976;-81
2022/10/30 00:23:37;;;;;;;;;10.25;10.25;;;;;;;;5085529;28;8946;-81
2022/10/30 00:26:06;;;;;;;;;10.00;10.00;;;;;;;;5084168;28;8854;-84
2022/10/30 00:28:37;;;;;;;;;8.50;5.75;;;;;;;;5065206;28;8818;-81
2022/10/30 00:31:21;;;;;;;;;10.25;10.25;;;;;;;;5080099;28;8900;-81
2022/10/30 00:33:51;;;;;;;;;9.75;9.75;;;;;;;;5081614;28;8863;-80
2022/10/30 00:36:19;;;;;;;;;10.25;6.00;;;;;;;;5081790;28;8866;-80
2022/10/30 00:38:46;;;;;;;;;8.50;8.50;;;;;;;;5049471;28;9615;-82
2022/10/30 00:41:16;;;;;;;;;6.75;5.50;;;;;;;;5049022;28;8858;-80
2022/10/30 00:43:44;;;;;;;;;10.50;10.50;;;;;;;;5081921;28;8849;-79
2022/10/30 00:46:19;;;;;;;;;8.25;8.25;;;;;;;;5083305;28;8960;-81
2022/10/30 00:48:52;;;;;;;;;9.75;9.75;;;;;;;;5083367;28;8990;-80
2022/10/30 00:51:20;;;;;;;;;11.00;9.50;;;;;;;;5083782;28;8859;-81
2022/10/30 00:53:49;;;;;;;;;12.50;9.00;;;;;;;;5065933;28;8843;-80
2022/10/30 00:56:19;;;;;;;;;11.00;9.25;;;;;;;;5067008;28;8840;-80
2022/10/30 00:58:52;;;;;;;;;6.00;4.00;;;;;;;;5064589;28;8876;-80
2022/10/30 01:01:25;;;;;;;;;11.25;10.00;;;;;;;;5082421;28;8825;-79
2022/10/30 01:04:04;;;;;;;;;12.75;11.75;;;;;;;;5065132;28;8846;-78
2022/10/30 01:06:34;;;;;;;;;14.00;12.25;;;;;;;;5081576;28;8850;-78
2022/10/30 01:09:05;;;;;;;;;14.50;12.75;;;;;;;;5065103;28;8862;-79
2022/10/30 01:11:32;;;;;;;;;10.75;9.50;;;;;;;;5080231;28;8894;-79
2022/10/30 01:14:05;;;;;;;;;9.00;7.75;;;;;;;;5081109;28;8901;-79
2022/10/30 01:16:44;;;;;;;;;11.75;11.00;;;;;;;;5061669;28;8861;-79
2022/10/30 01:19:22;;;;;;;;;12.33;12.33;;;;;;;;5064515;28;8884;-80
2022/10/30 01:21:59;;;;;;;;;9.25;8.25;;;;;;;;5061205;28;9053;-79
2022/10/30 01:24:35;;;;;;;;;11.33;9.33;;;;;;;;5027735;28;8838;-78
2022/10/30 01:27:14;;;;;;;;;14.50;11.50;;;;;;;;5046137;28;8931;-79
2022/10/30 01:29:51;;;;;;;;;13.67;12.00;;;;;;;;5057020;28;9584;-80
2022/10/30 01:32:30;;;;;;;;;8.00;8.00;;;;;;;;5062143;28;8947;-79
2022/10/30 01:35:05;;;;;;;;;14.33;12.00;;;;;;;;5064006;28;9054;-79
2022/10/30 01:37:34;;;;;;;;;14.00;12.67;;;;;;;;5045918;28;8913;-78
2022/10/30 01:40:11;;;;;;;;;14.67;11.67;;;;;;;;5059076;28;9115;-78
2022/10/30 01:42:50;;;;;;;;;12.00;12.00;;;;;;;;5062722;28;8906;-79
2022/10/30 01:45:22;;;;;;;;;7.00;7.00;;;;;;;;5061990;28;8913;-80
2022/10/30 01:48:01;;;;;;;;;10.00;9.75;;;;;;;;5062412;28;8936;-80
2022/10/30 01:50:39;;;;;;;;;10.75;10.75;;;;;;;;5060978;28;8920;-79
2022/10/30 01:53:14;;;;;;;;;12.00;11.33;;;;;;;;5061786;28;8873;-79
2022/10/30 01:55:49;;;;;;;;;11.00;8.33;;;;;;;;5043009;28;9147;-79
2022/10/30 01:58:21;;;;;;;;;13.67;10.33;;;;;;;;5041525;28;8906;-80
2022/10/30 02:00:52;;;;;;;;;11.50;11.50;;;;;;;;5060361;28;8956;-79
2022/10/30 02:03:21;;;;;;;;;7.33;7.33;;;;;;;;5041734;28;8860;-79
2022/10/30 02:05:51;;;;;;;;;12.67;11.33;;;;;;;;5063552;28;8975;-78
2022/10/30 02:08:18;;;;;;;;;8.50;7.00;;;;;;;;5061381;28;8985;-79
2022/10/30 02:10:48;;;;;;;;;12.33;11.00;;;;;;;;5062855;28;8889;-78
2022/10/30 02:13:15;;;;;;;;;11.25;9.00;;;;;;;;5062187;28;9000;-79
2022/10/30 02:15:44;;;;;;;;;12.33;9.67;;;;;;;;5061695;28;9728;-79
2022/10/30 02:18:12;;;;;;;;;14.33;11.00;;;;;;;;5042708;28;8892;-79
2022/10/30 02:20:41;;;;;;;;;10.33;8.67;;;;;;;;5055986;28;8959;-79
2022/10/30 02:23:15;;;;;;;;;13.33;10.33;;;;;;;;5080593;28;8986;-79
2022/10/30 02:25:43;;;;;;;;;12.67;10.33;;;;;;;;5079073;28;9120;-79
2022/10/30 02:28:10;;;;;;;;;13.00;9.33;;;;;;;;5046635;28;9145;-80
2022/10/30 02:30:37;;;;;;;;;15.33;12.00;;;;;;;;5086631;28;9056;-79
2022/10/30 02:33:05;;;;;;;;;14.00;11.00;;;;;;;;5066861;28;9021;-79
2022/10/30 02:35:34;;;;;;;;;9.33;6.67;;;;;;;;5068271;28;9005;-79
2022/10/30 02:38:03;;;;;;;;;11.33;11.33;;;;;;;;5068575;28;9666;-79
2022/10/30 02:40:31;;;;;;;;;9.33;8.33;;;;;;;;5086429;28;9083;-79
2022/10/30 02:43:08;;;;;;;;;8.00;8.00;;;;;;;;5085445;28;8925;-81
2022/10/30 02:45:36;;;;;;;;;13.33;12.67;;;;;;;;5085459;28;9089;-80
2022/10/30 02:48:04;;;;;;;;;10.00;10.00;;;;;;;;5066978;28;8998;-79
2022/10/30 02:50:33;;;;;;;;;11.67;11.67;;;;;;;;5067589;28;9034;-78
2022/10/30 02:53:02;;;;;;;;;12.00;11.00;;;;;;;;5086926;28;9028;-80
2022/10/30 02:55:30;;;;;;;;;11.67;11.67;;;;;;;;5068543;28;9060;-80
2022/10/30 02:57:58;;;;;;;;;15.00;12.33;;;;;;;;5084908;28;9148;-79
2022/10/30 03:00:25;;;;;;;;;10.67;10.67;;;;;;;;5085448;28;9126;-79
2022/10/30 03:02:56;;;;;;;;;10.67;10.67;;;;;;;;5083971;28;9050;-78
2022/10/30 03:05:23;;;;;;;;;9.00;9.00;;;;;;;;5068374;28;9189;-79
2022/10/30 03:07:54;;;;;;;;;12.33;11.00;;;;;;;;5084579;28;9198;-79
2022/10/30 03:10:23;;;;;;;;;8.00;8.00;;;;;;;;5084616;28;9182;-79
2022/10/30 03:12:50;;;;;;;;;11.00;11.00;;;;;;;;5064572;28;9148;-80
2022/10/30 03:15:18;;;;;;;;;11.00;11.00;;;;;;;;5083146;28;9262;-80
2022/10/30 03:17:45;;;;;;;;;10.00;10.00;;;;;;;;5064865;28;9319;-81
2022/10/30 03:20:15;;;;;;;;;14.33;12.67;;;;;;;;5066219;28;9364;-80
2022/10/30 03:22:43;;;;;;;;;12.33;11.00;;;;;;;;5063013;28;9293;-79
2022/10/30 03:25:10;;;;;;;;;8.67;8.67;;;;;;;;5065491;28;9132;-79
2022/10/30 03:27:40;;;;;;;;;9.67;9.67;;;;;;;;5066377;28;9115;-80
2022/10/30 03:30:09;;;;;;;;;13.33;11.67;;;;;;;;5082521;28;9342;-79
2022/10/30 03:32:37;;;;;;;;;11.33;11.33;;;;;;;;5066265;28;9352;-80
2022/10/30 03:35:06;;;;;;;;;14.67;13.33;;;;;;;;5083926;28;9234;-81
2022/10/30 03:37:33;;;;;;;;;8.00;8.00;;;;;;;;5083816;28;9282;-79
2022/10/30 03:40:01;;;;;;;;;13.67;10.00;;;;;;;;5098311;28;9310;-79
2022/10/30 03:42:28;;;;;;;;;14.33;12.67;;;;;;;;5084525;28;9232;-80
2022/10/30 03:44:57;;;;;;;;;11.00;11.00;;;;;;;;5068149;28;9225;-80
2022/10/30 03:47:25;;;;;;;;;13.67;12.00;;;;;;;;5066686;28;9199;-78
2022/10/30 03:49:53;;;;;;;;;12.67;10.67;;;;;;;;5067240;28;9248;-80
2022/10/30 03:52:20;;;;;;;;;12.67;12.00;;;;;;;;5049661;28;9172;-80
2022/10/30 03:54:48;;;;;;;;;13.00;11.33;;;;;;;;5050924;28;9178;-80
2022/10/30 03:57:15;;;;;;;;;12.67;11.00;;;;;;;;5066204;28;9162;-81
2022/10/30 03:59:43;;;;;;;;;10.00;10.00;;;;;;;;5085412;28;9286;-81
2022/10/30 04:02:12;;;;;;;;;8.00;8.00;;;;;;;;5066361;28;9037;-80
2022/10/30 04:04:39;;;;;;;;;11.67;8.67;;;;;;;;5083561;28;9028;-80
2022/10/30 04:07:07;;;;;;;;;12.33;12.33;;;;;;;;5084851;28;9086;-80
2022/10/30 04:09:34;;;;;;;;;9.00;9.00;;;;;;;;5082880;28;9893;-80
2022/10/30 04:12:04;;;;;;;;;12.00;11.00;;;;;;;;5084782;28;9809;-80
2022/10/30 04:14:32;;;;;;;;;12.00;10.33;;;;;;;;5066153;28;8932;-79
2022/10/30 04:16:59;;;;;;;;;8.67;8.67;;;;;;;;5084587;28;8986;-80
2022/10/30 04:19:29;;;;;;;;;12.67;11.33;;;;;;;;5050692;28;9012;-80
2022/10/30 04:21:56;;;;;;;;;13.67;12.00;;;;;;;;5082693;28;8939;-80
2022/10/30 04:24:23;;;;;;;;;8.00;7.75;;;;;;;;5083791;28;8947;-80
2022/10/30 04:26:51;;;;;;;;;8.00;8.00;;;;;;;;5081727;28;8852;-79
2022/10/30 04:29:18;;;;;;;;;12.00;7.33;;;;;;;;5083812;28;8924;-80
2022/10/30 04:31:46;;;;;;;;;10.75;10.75;;;;;;;;5082090;28;9005;-80
2022/10/30 04:34:13;;;;;;;;;13.00;12.00;;;;;;;;5082552;28;8860;-79
2022/10/30 04:36:42;;;;;;;;;13.33;12.33;;;;;;;;5082499;28;9122;-81
2022/10/30 04:39:10;;;;;;;;;10.00;10.00;;;;;;;;5082189;28;9000;-81
2022/10/30 04:41:37;;;;;;;;;12.33;10.33;;;;;;;;5085058;28;8959;-80
2022/10/30 04:44:06;;;;;;;;;11.00;9.33;;;;;;;;5082673;28;8950;-80
2022/10/30 04:46:34;;;;;;;;;10.00;10.00;;;;;;;;5084752;28;8946;-80
2022/10/30 04:49:01;;;;;;;;;13.33;11.67;;;;;;;;5115339;27;8947;-81
2022/10/30 04:51:29;;;;;;;;;9.33;9.33;;;;;;;;5081526;28;9088;-80
2022/10/30 04:53:58;;;;;;;;;11.00;11.00;;;;;;;;5063596;28;9015;-80
2022/10/30 04:56:26;;;;;;;;;11.00;10.67;;;;;;;;5110837;27;9043;-80
2022/10/30 04:58:53;;;;;;;;;9.00;9.00;;;;;;;;5113496;27;8995;-80
2022/10/30 05:01:21;;;;;;;;;8.00;8.00;;;;;;;;5081074;28;8932;-79
2022/10/30 05:03:48;;;;;;;;;7.00;7.00;;;;;;;;5082895;28;9600;-79
2022/10/30 05:06:20;;;;;;;;;15.67;12.33;;;;;;;;5082734;28;9117;-79
2022/10/30 05:08:48;;;;;;;;;17.00;15.00;;;;;;;;5081672;28;9092;-79
2022/10/30 05:11:18;;;;;;;;;12.00;12.00;;;;;;;;5064718;28;9281;-79
2022/10/30 05:13:46;;;;;;;;;17.67;13.33;;;;;;;;5061863;28;9146;-78
2022/10/30 05:16:13;;;;;;;;;13.33;10.67;;;;;;;;5081733;28;9247;-80
2022/10/30 05:18:40;;;;;;;;;11.00;9.00;;;;;;;;5082152;28;9086;-80
2022/10/30 05:21:08;;;;;;;;;17.33;14.67;;;;;;;;5081060;28;9178;-80
2022/10/30 05:23:35;;;;;;;;;12.00;11.00;;;;;;;;5082676;28;9238;-80
2022/10/30 05:26:04;;;;;;;;;9.67;9.67;;;;;;;;5082888;28;9178;-79
2022/10/30 05:28:33;;;;;;;;;11.00;11.00;;;;;;;;5082568;28;9299;-78
2022/10/30 05:31:00;;;;;;;;;11.67;9.67;;;;;;;;5081677;28;9387;-78
2022/10/30 05:33:28;;;;;;;;;10.00;7.33;;;;;;;;5080980;28;9286;-80
2022/10/30 05:35:56;;;;;;;;;11.00;11.00;;;;;;;;5082026;28;9216;-79
2022/10/30 05:38:23;;;;;;;;;14.67;14.67;;;;;;;;5081566;28;10031;-80
2022/10/30 05:40:50;;;;;;;;;15.00;13.67;;;;;;;;5083345;28;9157;-80
2022/10/30 05:43:18;;;;;;;;;14.00;10.67;;;;;;;;5080931;28;9180;-79
2022/10/30 05:45:49;;;;;;;;;10.33;10.33;;;;;;;;5080450;28;9209;-78
2022/10/30 05:48:16;;;;;;;;;10.33;10.33;;;;;;;;5080295;28;9064;-80
2022/10/30 05:50:44;;;;;;;;;11.00;11.00;;;;;;;;5081692;28;9984;-80
2022/10/30 05:53:11;;;;;;;;;13.00;11.67;;;;;;;;5081798;28;9075;-79
2022/10/30 05:55:39;;;;;;;;;9.67;9.67;;;;;;;;5081827;28;9235;-79
2022/10/30 05:58:07;;;;;;;;;10.67;10.67;;;;;;;;5081698;28;9136;-80
2022/10/30 06:00:36;;;;;;;;;11.33;10.00;;;;;;;;5083164;28;9378;-80
2022/10/30 06:03:06;;;;;;;;;8.00;8.00;;;;;;;;5064934;28;9326;-81
2022/10/30 06:05:35;;;;;;;;;8.67;8.67;;;;;;;;5087380;28;9335;-80
2022/10/30 06:08:07;;;;;;;;;12.00;12.00;;;;;;;;5086219;28;9308;-80
2022/10/30 06:10:35;;;;;;;;;13.67;12.00;;;;;;;;5087729;28;9426;-81
2022/10/30 06:13:05;;;;;;;;;10.67;10.67;;;;;;;;5087322;28;9589;-81
2022/10/30 06:15:33;;;;;;;;;12.67;9.33;;;;;;;;5088380;28;9375;-80
2022/10/30 06:18:01;;;;;;;;;11.00;11.00;;;;;;;;5086034;28;9255;-80
2022/10/30 06:20:31;;;;;;;;;10.00;7.67;;;;;;;;5069102;28;9378;-80
2022/10/30 06:22:59;;;;;;;;;11.00;11.00;;;;;;;;5086893;28;9315;-80
2022/10/30 06:25:27;;;;;;;;;13.67;10.33;;;;;;;;5083603;28;9222;-81
2022/10/30 06:27:55;;;;;;;;;6.33;6.33;;;;;;;;5086237;28;9292;-80
2022/10/30 06:30:23;;;;;;;;;8.33;8.33;;;;;;;;5085972;28;9421;-80
2022/10/30 06:32:50;;;;;;;;;14.00;10.67;;;;;;;;5085261;28;9399;-80
2022/10/30 06:35:17;;;;;;;;;8.00;8.00;;;;;;;;5084950;28;9521;-80
2022/10/30 06:37:50;;;;;;;;;7.00;7.00;;;;;;;;5085303;28;9307;-80
2022/10/30 06:40:18;;;;;;;;;10.00;10.00;;;;;;;;5082957;28;9257;-79
2022/10/30 06:42:46;;;;;;;;;10.00;9.67;;;;;;;;5085767;28;10071;-80
2022/10/30 06:45:15;;;;;;;;;7.33;7.33;;;;;;;;5116640;27;9316;-81
2022/10/30 06:47:43;;;;;;;;;8.00;8.00;;;;;;;;5068872;28;9360;-79
2022/10/30 06:50:12;;;;;;;;;14.67;12.33;;;;;;;;5086038;28;9358;-80
2022/10/30 06:52:40;;;;;;;;;8.00;7.00;;;;;;;;5086255;28;10204;-78
2022/10/30 06:55:10;;;;;;;;;8.00;8.00;;;;;;;;5085678;28;9265;-77
2022/10/30 06:57:38;;;;;;;;;11.00;11.00;;;;;;;;5086989;28;9539;-77
2022/10/30 07:00:07;;;;;;;;;11.00;7.33;;;;;;;;5086644;28;9403;-80
2022/10/30 07:02:37;;;;;;;;;11.67;11.33;;;;;;;;5084512;28;9320;-79
2022/10/30 07:05:05;;;;;;;;;10.67;8.00;;;;;;;;5081850;28;9354;-79
2022/10/30 07:07:32;;;;;;;;;11.00;11.00;;;;;;;;5115852;27;9253;-80
2022/10/30 07:10:00;;;;;;;;;9.33;9.33;;;;;;;;5089915;28;10168;-80
2022/10/30 07:12:29;;;;;;;;;10.00;10.00;;;;;;;;5087086;28;9350;-74
2022/10/30 07:14:56;;;;;;;;;11.67;10.00;;;;;;;;5080043;28;9247;-75
2022/10/30 07:17:23;;;;;;;;;16.00;12.00;;;;;;;;5093428;28;9388;-75
2022/10/30 07:19:51;;;;;;;;;13.67;11.00;;;;;;;;5079906;28;9179;-76
2022/10/30 07:22:18;;;;;;;;;11.67;11.00;;;;;;;;5081311;28;9228;-77
2022/10/30 07:24:46;;;;;;;;;15.67;12.67;;;;;;;;5065000;28;9306;-76
2022/10/30 07:27:14;;;;;;;;;11.67;11.67;;;;;;;;5065515;28;9192;-77
2022/10/30 07:29:43;;;;;;;;;9.33;9.00;;;;;;;;5084639;28;9195;-77
2022/10/30 07:32:12;;;;;;;;;10.33;7.33;;;;;;;;5083088;28;9078;-76
2022/10/30 07:34:40;;;;;;;;;5.33;5.00;;;;;;;;5079373;28;9012;-76
2022/10/30 07:37:07;;;;;;;;;12.33;7.33;;;;;;;;5082342;28;9076;-76
2022/10/30 07:39:34;;;;;;;;;12.67;9.00;;;;;;;;5083694;28;9075;-73
2022/10/30 07:42:04;;;;;;;;;11.00;11.00;;;;;;;;5066889;28;9917;-73
2022/10/30 07:44:32;;;;;;;;;3.67;3.67;;;;;;;;5083522;28;9067;-77
2022/10/30 07:47:01;;;;;;;;;11.33;10.00;;;;;;;;5062761;28;9075;-78
2022/10/30 07:49:28;;;;;;;;;11.00;8.67;;;;;;;;5081550;28;8919;-77
2022/10/30 07:51:56;;;;;;;;;10.00;10.00;;;;;;;;5083673;28;8912;-77
2022/10/30 07:54:23;;;;;;;;;13.00;10.75;;;;;;;;5082688;28;8929;-77
2022/10/30 07:56:51;;;;;;;;;10.25;10.00;;;;;;;;5063747;28;8860;-78
2022/10/30 07:59:18;;;;;;;;;12.25;9.00;;;;;;;;5048506;28;8859;-77
2022/10/30 08:01:46;;;;;;;;;8.00;8.00;;;;;;;;5064798;28;8880;-77
2022/10/30 08:04:14;;;;;;;;;12.50;10.75;;;;;;;;5080969;28;8923;-77
2022/10/30 08:06:42;;;;;;;;;11.25;11.00;;;;;;;;5083282;28;8896;-78
2022/10/30 08:09:09;;;;;;;;;11.75;7.00;;;;;;;;5081569;28;8841;-79
2022/10/30 08:11:37;;;;;;;;;8.00;7.75;;;;;;;;5083191;28;8862;-78
2022/10/30 08:14:05;;;;;;;;;12.25;11.25;;;;;;;;5082397;28;8839;-78
2022/10/30 08:16:35;;;;;;;;;6.75;6.75;;;;;;;;5064880;28;9632;-78
2022/10/30 08:19:03;;;;;;;;;12.25;11.00;;;;;;;;5063245;28;8968;-76
2022/10/30 08:21:33;;;;;;;;;14.50;10.75;;;;;;;;5080716;28;8851;-75
2022/10/30 08:24:00;;;;;;;;;7.50;7.50;;;;;;;;5084282;28;8911;-75
2022/10/30 08:26:28;;;;;;;;;7.00;7.00;;;;;;;;5046856;28;8981;-76
2022/10/30 08:28:55;;;;;;;;;12.50;11.25;;;;;;;;5083042;28;8974;-75
2022/10/30 08:31:23;;;;;;;;;12.75;9.00;;;;;;;;5043867;28;8936;-75
2022/10/30 08:33:50;;;;;;;;;8.75;8.00;;;;;;;;5065365;28;8844;-74
2022/10/30 08:36:18;;;;;;;;;12.75;11.00;;;;;;;;5079797;28;8867;-75
2022/10/30 08:38:50;;;;;;;;;12.25;9.00;;;;;;;;5062517;28;8828;-75
2022/10/30 08:41:17;;;;;;;;;9.50;8.00;;;;;;;;5047003;28;8850;-74
2022/10/30 08:43:45;;;;;;;;;5.00;5.00;;;;;;;;5082982;28;8851;-75
2022/10/30 08:46:12;;;;;;;;;9.50;9.50;;;;;;;;5031274;28;8835;-74
2022/10/30 08:48:40;;;;;;;;;8.50;8.50;;;;;;;;5078365;28;8888;-75
2022/10/30 08:51:23;;;;;;;;;8.75;8.75;;;;;;;;5082518;28;8874;-75
2022/10/30 08:53:53;;;;;;;;;11.75;11.75;;;;;;;;5081013;28;8846;-74
2022/10/30 08:56:29;;;;;;;;;6.50;6.25;;;;;;;;5047708;28;8843;-75
2022/10/30 08:59:16;;;;;;;;;11.00;8.00;;;;;;;;5083011;28;8969;-76
2022/10/30 09:01:54;;;;;;;;;9.25;9.00;;;;;;;;5081487;28;8989;-75
2022/10/30 09:04:33;;;;;;;;;8.25;8.25;;;;;;;;5065062;28;8860;-74
2022/10/30 09:07:01;;;;;;;;;6.75;5.50;;;;;;;;5080560;28;8889;-74
2022/10/30 09:09:30;;;;;;;;;7.75;7.75;;;;;;;;5081811;28;9740;-75
2022/10/30 09:11:57;;;;;;;;;7.00;7.00;;;;;;;;5081777;28;8958;-76
2022/10/30 09:14:25;;;;;;;;;6.00;6.00;;;;;;;;5081424;28;8870;-75
2022/10/30 09:16:52;;;;;;;;;5.50;5.50;;;;;;;;5081779;28;8884;-75
2022/10/30 09:19:19;;;;;;;;;8.75;7.00;;;;;;;;5081700;28;8843;-75
2022/10/30 09:21:47;;;;;;;;;8.75;8.75;;;;;;;;5084266;28;8907;-75
2022/10/30 09:24:14;;;;;;;;;11.25;8.00;;;;;;;;5080234;28;8847;-75
2022/10/30 09:26:43;;;;;;;;;10.75;9.00;;;;;;;;5081518;28;9249;-73
2022/10/30 09:29:10;;;;;;;;;8.25;8.25;;;;;;;;5079940;28;8838;-76
2022/10/30 09:31:38;;;;;;;;;10.25;7.50;;;;;;;;5081312;28;8829;-75
2022/10/30 09:34:05;;;;;;;;;11.25;9.75;;;;;;;;5081675;28;8954;-76
2022/10/30 09:36:32;;;;;;;;;9.00;7.50;;;;;;;;5081735;28;8846;-76
2022/10/30 09:39:00;;;;;;;;;7.25;7.00;;;;;;;;5085226;28;8845;-75
2022/10/30 09:41:58;;;;;;;;;7.25;7.25;;;;;;;;5085853;28;9658;-75
2022/10/30 09:44:35;;;;;;;;;6.75;6.75;;;;;;;;5083098;28;8871;-75
2022/10/30 09:47:10;;;;;;;;;8.00;8.00;;;;;;;;5085607;28;8878;-76
2022/10/30 09:49:58;;;;;;;;;8.75;8.75;;;;;;;;5086022;28;8864;-75
2022/10/30 09:52:30;;;;;;;;;8.75;8.75;;;;;;;;5086547;28;8838;-75
2022/10/30 09:55:09;;;;;;;;;10.75;7.50;;;;;;;;5083579;28;8840;-75
2022/10/30 09:57:48;;;;;;;;;8.25;6.50;;;;;;;;5081668;28;8848;-74
2022/10/30 10:00:23;;;;;;;;;9.50;8.00;;;;;;;;5085007;28;8868;-76
2022/10/30 10:02:59;;;;;;;;;9.00;7.50;;;;;;;;5084708;28;8885;-76
2022/10/30 10:05:30;;;;;;;;;7.00;7.00;;;;;;;;5084109;28;8880;-73
2022/10/30 10:08:01;;;;;;;;;7.50;7.50;;;;;;;;5084603;28;8862;-73
2022/10/30 10:10:40;;;;;;;;;8.00;8.00;;;;;;;;5084784;28;8821;-74
2022/10/30 10:13:33;;;;;;;;;7.25;7.00;;;;;;;;5084186;28;8828;-74
2022/10/30 10:16:08;;;;;;;;;8.00;8.00;;;;;;;;5083867;28;8863;-75
2022/10/30 10:18:43;;;;;;;;;6.50;6.50;;;;;;;;5082708;28;9598;-74
2022/10/30 10:21:17;;;;;;;;;11.50;7.25;;;;;;;;5079770;28;8832;-75
2022/10/30 10:23:48;;;;;;;;;8.75;8.75;;;;;;;;5083528;28;8862;-75
2022/10/30 10:26:33;;;;;;;;;10.00;8.00;;;;;;;;5082302;28;8840;-74
2022/10/30 10:29:25;;;;;;;;;8.25;8.25;;;;;;;;5085783;28;8867;-75
2022/10/30 10:32:17;;;;;;;;;8.75;8.75;;;;;;;;5081923;28;8988;-74
2022/10/30 10:35:01;;;;;;;;;8.25;8.25;;;;;;;;5084391;28;8840;-74
2022/10/30 10:37:34;;;;;;;;;8.25;6.00;;;;;;;;5084485;28;8820;-75
2022/10/30 10:40:18;;;;;;;;;6.00;6.00;;;;;;;;5083636;28;9009;-74
2022/10/30 10:42:53;;;;;;;;;9.60;9.60;;;;;;;;5081743;28;8879;-75
2022/10/30 10:45:29;;;;;;;;;6.60;6.60;;;;;;;;5082240;28;8986;-74
2022/10/30 10:48:29;;;;;;;;;10.00;8.80;;;;;;;;5081981;28;8873;-75
2022/10/30 10:51:01;;;;;;;;;9.00;9.00;;;;;;;;5083209;28;8933;-75
2022/10/30 10:53:34;;;;;;;;;7.40;7.40;;;;;;;;5082105;28;8894;-75
2022/10/30 10:56:05;;;;;;;;;8.80;8.80;;;;;;;;5082606;28;8871;-73
2022/10/30 10:58:35;;;;;;;;;9.80;8.00;;;;;;;;5078386;28;8848;-72
2022/10/30 11:01:20;;;;;;;;;10.40;8.00;;;;;;;;5083053;28;8845;-73
2022/10/30 11:04:12;;;;;;;;;7.80;7.80;;;;;;;;5081119;28;8836;-73
2022/10/30 11:06:46;;;;;;;;;8.80;8.80;;;;;;;;5081656;28;8887;-73
2022/10/30 11:09:18;;;;;;;;;11.40;11.00;;;;;;;;5080794;28;8878;-74
2022/10/30 11:11:48;;;;;;;;;8.20;6.00;;;;;;;;5084581;28;8845;-75
2022/10/30 11:14:17;;;;;;;;;9.20;6.80;;;;;;;;5082262;28;8837;-72
2022/10/30 11:16:59;;;;;;;;;4.60;4.60;;;;;;;;5081977;28;8875;-72
2022/10/30 11:19:26;;;;;;;;;7.60;7.60;;;;;;;;5081877;28;8846;-76
2022/10/30 11:21:56;;;;;;;;;8.00;8.00;;;;;;;;5084485;28;9668;-75
2022/10/30 11:24:29;;;;;;;;;9.20;7.60;;;;;;;;5081820;28;8834;-76
2022/10/30 11:26:57;;;;;;;;;8.00;8.00;;;;;;;;5083115;28;8981;-76
2022/10/30 11:29:27;;;;;;;;;11.40;9.00;;;;;;;;5083505;28;8878;-75
2022/10/30 11:32:02;;;;;;;;;11.20;9.00;;;;;;;;5080820;28;8865;-75
2022/10/30 11:34:33;;;;;;;;;8.40;8.40;;;;;;;;5083232;28;8845;-75
2022/10/30 11:37:00;;;;;;;;;12.60;7.80;;;;;;;;5083800;28;8846;-78
2022/10/30 11:39:29;;;;;;;;;8.20;8.20;;;;;;;;5064716;28;8834;-75
2022/10/30 11:42:00;;;;;;;;;10.20;7.40;;;;;;;;5063086;28;8896;-77
2022/10/30 11:44:32;;;;;;;;;10.60;10.60;;;;;;;;5083239;28;8845;-75
2022/10/30 11:47:05;;;;;;;;;16.40;13.00;;;;;;;;5065574;28;8828;-76
2022/10/30 11:49:43;;;;;;;;;10.00;10.00;;;;;;;;5067969;28;8854;-76
2022/10/30 11:52:13;;;;;;;;;10.80;10.60;;;;;;;;5081678;28;8816;-76
2022/10/30 11:54:44;;;;;;;;;11.60;11.60;;;;;;;;5079499;28;8864;-75
2022/10/30 11:57:21;;;;;;;;;10.80;9.20;;;;;;;;5080004;28;8824;-76
2022/10/30 11:59:50;;;;;;;;;15.40;12.60;;;;;;;;5079531;28;8839;-78
2022/10/30 12:02:28;;;;;;;;;13.60;13.60;;;;;;;;5080668;28;8843;-77
2022/10/30 12:04:56;;;;;;;;;13.40;10.80;;;;;;;;5064746;28;8853;-78
2022/10/30 12:07:30;;;;;;;;;13.20;12.60;;;;;;;;5061655;28;8854;-77
2022/10/30 12:09:58;;;;;;;;;10.60;10.60;;;;;;;;5082049;28;8942;-77
2022/10/30 12:12:30;;;;;;;;;11.60;11.20;;;;;;;;5083314;28;8952;-74
2022/10/30 12:15:11;;;;;;;;;12.60;12.60;;;;;;;;5083111;28;8838;-74
2022/10/30 12:17:41;;;;;;;;;12.00;10.20;;;;;;;;5063332;28;8844;-75
2022/10/30 12:20:14;;;;;;;;;14.00;14.00;;;;;;;;5069594;28;8995;-75
2022/10/30 12:22:41;;;;;;;;;12.00;11.60;;;;;;;;5086460;28;8887;-76
2022/10/30 12:25:25;;;;;;;;;13.00;13.00;;;;;;;;5083982;28;8852;-73
2022/10/30 12:28:01;;;;;;;;;14.20;14.20;;;;;;;;5085079;28;8864;-74
2022/10/30 12:30:31;;;;;;;;;10.60;10.60;;;;;;;;5081247;28;9370;-74
2022/10/30 12:33:07;;;;;;;;;10.80;10.80;;;;;;;;5082059;28;8839;-73
2022/10/30 12:35:49;;;;;;;;;11.20;9.60;;;;;;;;5081987;28;8840;-74
2022/10/30 12:38:31;;;;;;;;;14.60;14.60;;;;;;;;5082284;28;9011;-73
2022/10/30 12:41:15;;;;;;;;;13.00;11.60;;;;;;;;5082335;28;8987;-75
2022/10/30 12:43:51;;;;;;;;;14.80;13.80;;;;;;;;5083632;28;8840;-75
2022/10/30 12:46:30;;;;;;;;;14.80;11.00;;;;;;;;5081100;28;8844;-74
2022/10/30 12:49:08;;;;;;;;;14.40;14.00;;;;;;;;5082564;28;8871;-75
2022/10/30 12:51:41;;;;;;;;;13.00;12.00;;;;;;;;5083756;28;8848;-74
2022/10/30 12:54:20;;;;;;;;;14.20;14.20;;;;;;;;5080533;28;9641;-74
2022/10/30 12:56:51;;;;;;;;;14.00;12.60;;;;;;;;5082523;28;8840;-74
2022/10/30 12:59:27;;;;;;;;;13.60;13.40;;;;;;;;5083386;28;8851;-75
2022/10/30 13:01:59;;;;;;;;;17.60;12.00;;;;;;;;5081521;28;8856;-75
2022/10/30 13:04:33;;;;;;;;;14.40;14.40;;;;;;;;5082771;28;8998;-75
2022/10/30 13:07:08;;;;;;;;;12.20;11.80;;;;;;;;5086698;28;8856;-75
2022/10/30 13:09:40;;;;;;;;;13.00;12.20;;;;;;;;5081750;28;8876;-75
2022/10/30 13:12:12;;;;;;;;;13.20;12.00;;;;;;;;5079461;28;8925;-76
2022/10/30 13:14:42;;;;;;;;;10.40;8.00;;;;;;;;5082509;28;8871;-75
2022/10/30 13:17:12;;;;;;;;;9.00;8.00;;;;;;;;5083034;28;8859;-76
2022/10/30 13:19:42;;;;;;;;;10.00;8.00;;;;;;;;5081593;28;8990;-75
2022/10/30 13:22:16;;;;;;;;;11.00;8.00;;;;;;;;5082257;28;8865;-76
2022/10/30 13:24:51;;;;;;;;;10.75;9.25;;;;;;;;5081839;28;8843;-74
2022/10/30 13:27:23;;;;;;;;;9.00;7.00;;;;;;;;5064409;28;8861;-75
2022/10/30 13:29:56;;;;;;;;;7.25;7.25;;;;;;;;5083697;28;8839;-74
2022/10/30 13:32:31;;;;;;;;;11.00;7.00;;;;;;;;5082020;28;8884;-75
2022/10/30 13:35:09;;;;;;;;;9.00;7.50;;;;;;;;5066534;28;8853;-75
2022/10/30 13:37:47;;;;;;;;;7.50;6.75;;;;;;;;5084253;28;9682;-75
2022/10/30 13:40:19;;;;;;;;;10.25;7.25;;;;;;;;5083257;28;8931;-76
2022/10/30 13:42:57;;;;;;;;;7.75;7.25;;;;;;;;5080669;28;8980;-74
2022/10/30 13:45:43;;;;;;;;;7.50;7.50;;;;;;;;5065246;28;8816;-75
2022/10/30 13:48:17;;;;;;;;;6.50;5.50;;;;;;;;5049220;28;8834;-75
2022/10/30 13:51:02;;;;;;;;;7.25;7.25;;;;;;;;5084059;28;9753;-75
2022/10/30 13:53:31;;;;;;;;;6.50;6.50;;;;;;;;5065676;28;8873;-75
2022/10/30 13:55:59;;;;;;;;;5.50;5.50;;;;;;;;5065297;28;8858;-75
2022/10/30 13:58:36;;;;;;;;;4.75;4.50;;;;;;;;5082678;28;9008;-74
2022/10/30 14:01:17;;;;;;;;;5.75;5.00;;;;;;;;5091303;28;8864;-75
2022/10/30 14:03:51;;;;;;;;;5.50;5.50;;;;;;;;5063773;28;8875;-74
2022/10/30 14:06:32;;;;;;;;;8.00;5.25;;;;;;;;5083180;28;8867;-75
2022/10/30 14:09:09;;;;;;;;;5.25;5.25;;;;;;;;5083670;28;8842;-76
2022/10/30 14:11:37;;;;;;;;;6.00;6.00;;;;;;;;5079711;28;8864;-76
2022/10/30 14:14:06;;;;;;;;;5.75;5.75;;;;;;;;5081097;28;9671;-74
2022/10/30 14:16:39;;;;;;;;;6.25;4.00;;;;;;;;5079252;28;8820;-75
2022/10/30 14:19:07;;;;;;;;;4.00;4.00;;;;;;;;5081476;28;8858;-75
2022/10/30 14:21:52;;;;;;;;;6.00;6.00;;;;;;;;5080903;28;8822;-75
2022/10/30 14:24:25;;;;;;;;;4.80;4.80;;;;;;;;5083732;28;8846;-76
2022/10/30 14:26:55;;;;;;;;;5.40;5.40;;;;;;;;5085121;28;8824;-76
2022/10/30 14:29:46;;;;;;;;;6.60;6.60;;;;;;;;5083824;28;8846;-77
2022/10/30 14:32:50;;;;;;;;;8.40;4.80;;;;;;;;5083629;28;8884;-76
2022/10/30 14:35:38;;;;;;;;;10.80;6.20;;;;;;;;5021922;28;8883;-77
2022/10/30 14:38:27;;;;;;;;;6.20;6.20;;;;;;;;5022410;28;8911;-74
2022/10/30 14:41:31;;;;;;;;;7.00;4.80;;;;;;;;5067968;28;8866;-76
2022/10/30 14:44:40;;;;;;;;;8.60;6.00;;;;;;;;5085033;28;9438;-76
2022/10/30 14:47:43;;;;;;;;;6.40;6.40;;;;;;;;5040796;28;8848;-76
2022/10/30 14:50:31;;;;;;;;;4.00;4.00;;;;;;;;5083582;28;8847;-75
2022/10/30 14:53:28;;;;;;;;;6.00;6.00;;;;;;;;5084385;28;8873;-75
2022/10/30 14:56:03;;;;;;;;;6.00;6.00;;;;;;;;5065003;28;8956;-78
2022/10/30 14:58:33;;;;;;;;;5.00;5.00;;;;;;;;5084139;28;8822;-76
2022/10/30 15:01:21;;;;;;;;;6.00;6.00;;;;;;;;5082698;28;8834;-76
2022/10/30 15:03:58;;;;;;;;;7.40;7.40;;;;;;;;5084032;28;8846;-76
2022/10/30 15:06:34;;;;;;;;;5.00;5.00;;;;;;;;5064546;28;8838;-75
2022/10/30 15:09:21;;;;;;;;;8.00;6.40;;;;;;;;5083183;28;8843;-75
2022/10/30 15:12:10;;;;;;;;;7.00;5.00;;;;;;;;5096819;27;8912;-76